30 september 2022

Tijd Code Weer Temp. Zicht Plafond Wind METAR/SPECI
17:00
V
19 °C 10 km+ 7.800 ft 310° 310° 11 kt METAR LFBO 301500Z AUTO 31011KT 260V340 9999 FEW047 BKN078 19/07 Q1015 NOSIG
16:30
V
19 °C 10 km+ 7.000 ft 310° 310° 14 kt METAR LFBO 301430Z AUTO 31014KT 9999 FEW016 SCT046 BKN070 19/08 Q1015 NOSIG
16:00
V
18 °C 10 km+ 7.600 ft 300° 300° 14 kt METAR LFBO 301400Z AUTO 30014KT 260V320 9999 FEW045 SCT056 BKN076 18/07 Q1015 NOSIG
15:30
V
18 °C 10 km+ 6.400 ft 290° 290° 13 kt METAR LFBO 301330Z AUTO 29013KT 250V330 9999 SCT044 BKN064 BKN078 18/08 Q1015 NOSIG
15:00
V
19 °C 10 km+ 5.400 ft 310° 310° 13 kt METAR LFBO 301300Z AUTO 31013KT 9999 SCT040 SCT047 BKN054 19/08 Q1015 NOSIG
14:30
V
17 °C 10 km+ 4.600 ft 290° 290° 12 kt METAR LFBO 301230Z AUTO 29012KT 9999 SCT038 BKN046 BKN072 17/07 Q1015 NOSIG
14:00
V
17 °C 10 km+ 4.500 ft 300° 300° 11 kt METAR LFBO 301200Z AUTO 30011KT 260V330 9999 FEW016 SCT035 BKN045 17/08 Q1015 NOSIG
13:30
V
16 °C 10 km+ 5.600 ft 310° 310° 10 kt METAR LFBO 301130Z AUTO 31010KT 270V340 9999 SCT031 SCT046 BKN056 16/09 Q1015 NOSIG
13:00
M
16 °C 10 km+ 2.600 ft 320° 320° 9 kt METAR LFBO 301100Z AUTO 32009KT 280V350 9999 BKN026 BKN033 BKN062 16/09 Q1015 NOSIG
12:30
M
15 °C 10 km+ 2.300 ft 290° 290° 9 kt METAR LFBO 301030Z AUTO 29009KT 240V330 9999 BKN023 15/10 Q1015 NOSIG
12:00
M
14 °C 10 km+ 2.100 ft 270° 270° 10 kt METAR LFBO 301000Z AUTO 27010KT 9999 SCT016 BKN021 BKN027 14/11 Q1015 NOSIG
11:30
M
13 °C 10 km+ 1.300 ft 300° 300° 7 kt METAR LFBO 300930Z AUTO 30007KT 270V330 9999 BKN013 13/11 Q1014 BECMG NSC
11:00
I
12 °C 10 km+ 900 ft 290° 290° 8 kt METAR LFBO 300900Z AUTO 29008KT 250V310 9999 BKN009 OVC014 12/11 Q1014 TEMPO BKN006 SCT017TCU
10:30
I
12 °C 10 km+ 900 ft 310° 310° 8 kt METAR LFBO 300830Z AUTO 31008KT 9999 BKN009/// BKN027/// BKN054/// ///TCU 12/11 Q1014 BECMG NSC
10:00
V
12 °C 10 km+ 3.000 ft 300° 300° 11 kt METAR LFBO 300800Z AUTO 30011KT 9999 -RA SCT010/// BKN030/// BKN045/// ///TCU 12/10 Q1013 TEMPO BKN006 SCT017TCU
09:30
V
12 °C 10 km+ 9.000 ft 310° 310° 9 kt METAR LFBO 300730Z AUTO 31009KT 9999 FEW010/// SCT058/// OVC090/// //////TCU 12/10 Q1013 TEMPO BKN006 SCT017TCU
09:00
V
11 °C 10 km+ 6.200 ft 300° 300° 9 kt METAR LFBO 300700Z AUTO 30009KT 9999 FEW009/// SCT047/// BKN062/// //////CB 11/10 Q1012 TEMPO BKN006 SCT017TCU
08:30
V
11 °C 10 km+ 8.800 ft 290° 290° 11 kt METAR LFBO 300630Z AUTO 29011KT 9999 SCT009 SCT070 OVC088 11/10 Q1012 TEMPO BKN006 SCT017TCU
08:00
V
11 °C 10 km+ - 300° 300° 10 kt METAR LFBO 300600Z AUTO 30010KT CAVOK 11/10 Q1011
07:30
V
11 °C 10 km+ - 280° 280° 13 kt METAR LFBO 300530Z AUTO 28013KT CAVOK 11/10 Q1011
07:00
V
12 °C 10 km+ - 270° 270° 10 kt METAR LFBO 300500Z AUTO 27010KT CAVOK 12/10 Q1010
06:30
V
12 °C 10 km+ - 280° 280° 9 kt METAR LFBO 300430Z AUTO 28009KT CAVOK 12/10 Q1010
06:00
V
11 °C 10 km+ - 270° 270° 11 kt METAR LFBO 300400Z AUTO 27011KT CAVOK 11/10 Q1010
05:30
V
11 °C 10 km+ - 270° 270° 10 kt METAR LFBO 300330Z AUTO 27010KT CAVOK 11/10 Q1009
05:00
V
11 °C 10 km+ - 270° 270° 9 kt METAR LFBO 300300Z AUTO 27009KT CAVOK 11/10 Q1009
04:30
V
11 °C 10 km+ - 280° 280° 9 kt METAR LFBO 300230Z AUTO 28009KT CAVOK 11/10 Q1009
04:00
V
11 °C 10 km+ - 270° 270° 10 kt METAR LFBO 300200Z AUTO 27010KT CAVOK 11/10 Q1009
03:30
V
11 °C 10 km+ - 270° 270° 9 kt METAR LFBO 300130Z AUTO 27009KT CAVOK 11/10 Q1009
03:00
V
11 °C 10 km+ - 280° 280° 8 kt METAR LFBO 300100Z AUTO 28008KT CAVOK 11/10 Q1009
02:30
V
12 °C 10 km+ - 280° 280° 9 kt METAR LFBO 300030Z AUTO 28009KT CAVOK 12/10 Q1009
02:00
V
12 °C 10 km+ - 280° 280° 8 kt METAR LFBO 300000Z AUTO 28008KT CAVOK 12/11 Q1009
01:30
V
12 °C 10 km+ 22.000 ft 280° 280° 9 kt METAR LFBO 292330Z AUTO 28009KT 9999 FEW012 SCT054 OVC220 12/11 Q1009
01:00
V
12 °C 10 km+ 21.000 ft 290° 290° 7 kt METAR LFBO 292300Z AUTO 29007KT 9999 FEW008 OVC210 12/11 Q1008
00:30
V
12 °C 10 km+ 5.600 ft 280° 280° 6 kt METAR LFBO 292230Z AUTO 28006KT 9999 FEW009 BKN056 BKN100 12/11 Q1008
00:00
V
12 °C 10 km+ 11.000 ft 300° 300° 6 kt METAR LFBO 292200Z AUTO 30006KT 9999 FEW014 SCT080 BKN110 12/12 Q1008

29 september 2022

Tijd Code Weer Temp. Zicht Plafond Wind METAR/SPECI
23:30
V
13 °C 10 km+ 4.600 ft 310° 310° 8 kt METAR LFBO 292130Z AUTO 31008KT 9999 FEW013/// BKN046/// BKN072/// //////TCU 13/12 Q1007
23:00
V
13 °C 10 km+ 4.900 ft 290° 290° 6 kt METAR LFBO 292100Z AUTO 29006KT 9999 SCT017/// BKN049/// BKN072/// ///TCU 13/12 Q1007
22:30
V
13 °C 10 km+ 5.400 ft 280° 280° 3 kt METAR LFBO 292030Z AUTO 28003KT 220V300 9999 SCT016/// SCT037/// BKN054/// ///CB 13/12 Q1007
22:00
V
13 °C 10 km+ 5.800 ft Var Var 3 kt METAR LFBO 292000Z AUTO VRB03KT 9999 FEW019/// SCT040/// BKN058/// ///CB 13/12 Q1006
21:30
V
13 °C 10 km+ 5.400 ft 340° 340° 5 kt METAR LFBO 291930Z AUTO 34005KT 9999 FEW037/// BKN054/// OVC072/// //////CB 13/11 Q1006
21:00
V
12 °C 10 km+ 4.300 ft 340° 340° 6 kt METAR LFBO 291900Z AUTO 34006KT 300V010 9999 FEW008/// BKN043/// BKN054/// ///CB 12/11 Q1006
20:30
M
14 °C 10 km+ 2.300 ft 290° 290° 5 kt METAR LFBO 291830Z AUTO 29005KT 250V360 9999 -RA SCT011/// BKN023/// BKN034/// //////CB 14/12 Q1006
20:00
V
13 °C 10 km+ 7.000 ft Var Var 2 kt METAR LFBO 291800Z AUTO VRB02KT 9999 FEW033/// SCT044/// BKN070/// //////CB 13/12 Q1005
19:30
V
13 °C 10 km+ 6.800 ft 320° 320° 4 kt METAR LFBO 291730Z AUTO 32004KT 280V350 9999 FEW031/// SCT048/// BKN068/// //////CB 13/12 Q1005 TEMPO 2000 RA BKN013 SCT020CB
19:00
V
13 °C 10 km+ 4.800 ft 320° 320° 7 kt METAR LFBO 291700Z AUTO 32007KT 9999 -RA FEW011/// BKN048/// OVC064/// ///CB 13/12 Q1005 TEMPO 2000 RA BKN013 SCT020CB
18:30
M
14 °C 10 km+ 2.200 ft 360° 360° 7 kt METAR LFBO 291630Z AUTO 36007KT 9999 R14R/1200U R14L/1400U -RA FEW012/// BKN022/// BKN028/// //////CB 14/12 Q1004 TEMPO 2000 RA BKN013 SCT020CB BECMG 27012KT
18:00
M
14 °C 9 km 2.800 ft 320° 320° 11 kt METAR LFBO 291600Z AUTO 32011KT 9000 -RA FEW019/// BKN028/// BKN036/// //////CB 14/13 Q1004 TEMPO 2000 RA BKN013 SCT020CB
17:30
I
15 °C 3,8 km 3.100 ft 320° 320° 15 kt METAR LFBO 291530Z AUTO 32015KT 9999 3800 -RA BKN031/// BKN039/// OVC048/// //////CB 15/12 Q1004 TEMPO 2000 RA BKN013 SCT020CB
17:00
M
17 °C 10 km+ 2.900 ft 260° 260° 13 kt METAR LFBO 291500Z AUTO 26013KT 9999 FEW024/// BKN029/// BKN035/// ///CB 17/10 Q1003 TEMPO 2000 RA BKN013 SCT020CB
16:30
V
17 °C 10 km+ 6.000 ft 290° 290° 15 kt METAR LFBO 291430Z AUTO 29015KT 9999 SCT029/// BKN060/// BKN072/// //////CB 17/10 Q1003 TEMPO 2000 RA BKN013 SCT020CB
16:00
M
17 °C 10 km+ 2.900 ft 270° 270° 16 kt METAR LFBO 291400Z AUTO 27016KT 9999 BKN029/// BKN072/// BKN092/// //////TCU 17/10 Q1003 TEMPO 4000 SHRA BKN012TCU BKN025
15:30
V
17 °C 10 km+ 6.600 ft 260° 260° 15 kt METAR LFBO 291330Z AUTO 26015KT 9999 SCT026/// SCT034/// BKN066/// ///TCU 17/11 Q1003 TEMPO 4000 SHRA BKN012TCU BKN025
15:00
V
17 °C 10 km+ 6.400 ft 270° 270° 16 kt METAR LFBO 291300Z AUTO 27016KT 9999 SCT025/// SCT033/// BKN064/// //////TCU 17/11 Q1003 TEMPO 4000 SHRA BKN012TCU BKN025
14:30
V
16 °C 10 km+ 6.600 ft 270° 270° 16 kt METAR LFBO 291230Z AUTO 27016KT 9999 SCT023/// SCT030/// BKN066/// ///CB 16/11 Q1004 TEMPO 4000 SHRA BKN012TCU BKN025
14:00
V
16 °C 10 km+ 5.200 ft 260° 260° 15 kt METAR LFBO 291200Z AUTO 26015KT 230V290 9999 FEW021/// SCT035/// BKN052/// //////TCU 16/12 Q1004 TEMPO 4000 SHRA BKN012TCU BKN025
13:30
M
16 °C 10 km+ 2.400 ft 270° 270° 11 kt METAR LFBO 291130Z AUTO 27011KT 230V320 9999 SCT019/// BKN024/// BKN033/// //////CB 16/12 Q1004 TEMPO 4000 SHRA BKN012TCU BKN050
13:00
V
16 °C 10 km+ 4.400 ft 260° 260° 10 kt METAR LFBO 291100Z AUTO 26010KT 9999 SCT022/// SCT037/// BKN044/// ///TCU 16/12 Q1004 TEMPO 4000 SHRA BKN012TCU BKN050
12:30
M
16 °C 10 km+ 2.400 ft 260° 260° 11 kt METAR LFBO 291030Z AUTO 26011KT 9999 SCT019/// BKN024/// BKN033/// //////TCU 16/12 Q1004 TEMPO 4000 SHRA BKN012TCU BKN050
12:00
M
16 °C 10 km+ 2.900 ft 260° 260° 11 kt METAR LFBO 291000Z AUTO 26011KT 9999 SCT018 BKN029 BKN039 16/12 Q1004 TEMPO 4000 SHRA BKN012TCU BKN050
11:30
M
16 °C 10 km+ 1.400 ft 280° 280° 11 kt METAR LFBO 290930Z AUTO 28011KT 240V300 9999 BKN014 BKN020 BKN025 16/12 Q1004 TEMPO 4000 SHRA BKN012TCU BKN050
11:00
M
15 °C 10 km+ 1.100 ft 270° 270° 11 kt METAR LFBO 290900Z AUTO 27011KT 9999 BKN011 BKN056 BKN084 15/12 Q1005 TEMPO 4000 SHRA BKN012TCU BKN050
10:30
V
14 °C 10 km+ 8.600 ft 270° 270° 9 kt METAR LFBO 290830Z AUTO 27009KT 9999 FEW010 SCT060 OVC086 14/13 Q1004 TEMPO 4000 SHRA BKN012TCU BKN050
10:00
V
14 °C 10 km+ 6.400 ft 270° 270° 10 kt METAR LFBO 290800Z AUTO 27010KT 9999 -RA SCT011/// SCT027/// BKN064/// ///TCU 14/12 Q1004 TEMPO 4000 SHRA
09:30
M
14 °C 10 km+ 1.100 ft 260° 260° 7 kt METAR LFBO 290730Z AUTO 26007KT 9999 -RA BKN011/// BKN023/// BKN047/// //////CB 14/13 Q1004 TEMPO 4000 SHRA BKN015TCU BKN050
09:00
V
14 °C 10 km+ 5.000 ft 260° 260° 5 kt METAR LFBO 290700Z AUTO 26005KT 9999 -RA FEW011/// SCT017/// BKN050/// //////CB 14/13 Q1004 TEMPO 4000 SHRA
08:30
V
14 °C 10 km+ 4.700 ft 230° 230° 6 kt METAR LFBO 290630Z AUTO 23006KT 9999 -RA FEW010/// BKN047/// BKN056/// //////TCU 14/12 Q1004 TEMPO 4000 SHRA
08:00
V
13 °C 10 km+ 6.600 ft 230° 230° 7 kt METAR LFBO 290600Z AUTO 23007KT 9999 SCT011/// BKN066/// BKN076/// //////TCU 13/12 Q1004 TEMPO 4000 SHRA
07:30
V
13 °C 10 km+ - 240° 240° 8 kt METAR LFBO 290530Z AUTO 24008KT 9999 //////TCU 13/12 Q1004 TEMPO 4000 SHRA BKN009
07:00
V
13 °C 10 km+ 7.400 ft 240° 240° 8 kt METAR LFBO 290500Z AUTO 24008KT 210V270 9999 FEW010/// BKN074/// OVC088/// //////TCU 13/12 Q1004 TEMPO 4000 SHRA BKN009
06:30
V
14 °C 10 km+ - 250° 250° 11 kt METAR LFBO 290430Z AUTO 25011KT 9999 //////TCU 14/12 Q1005 TEMPO 4000 SHRA BKN009
06:00
V
14 °C 10 km+ 6.400 ft 240° 240° 10 kt METAR LFBO 290400Z AUTO 24010KT 9999 FEW010/// BKN064/// BKN076/// //////CB 14/12 Q1005 TEMPO 4000 SHRA BKN009
05:30
V
14 °C 10 km+ - 260° 260° 12 kt METAR LFBO 290330Z AUTO 26012KT 9999 -RA //////TCU 14/13 Q1005 TEMPO 4000 SHRA BKN009
05:00
V
14 °C 10 km+ 7.000 ft 250° 250° 12 kt METAR LFBO 290300Z AUTO 25012KT 9999 FEW010/// BKN070/// BKN084/// ///TCU 14/13 Q1005 TEMPO 4000 SHRA BKN009
04:30
V
14 °C 10 km+ 6.800 ft 250° 250° 12 kt METAR LFBO 290230Z AUTO 25012KT 9999 FEW011/// BKN068/// OVC084/// //////TCU 14/13 Q1005 TEMPO 4000 SHRA BKN009
04:00
V
14 °C 10 km+ 9.600 ft 240° 240° 11 kt METAR LFBO 290200Z AUTO 24011KT 9999 FEW011/// SCT074/// BKN096/// //////TCU 14/13 Q1006 TEMPO 4000 SHRA BKN009
03:30
M
14 °C 10 km+ 1.000 ft 250° 250° 9 kt METAR LFBO 290130Z AUTO 25009KT 9999 BKN010/// BKN022/// BKN030/// //////TCU 14/13 Q1006 TEMPO 4000 SHRA
03:00
V
14 °C 10 km+ 3.300 ft 260° 260° 10 kt METAR LFBO 290100Z AUTO 26010KT 9999 BKN033 BKN100 BKN130 14/13 Q1006 TEMPO 4000 SHRA SCT014TCU BKN020
02:30
V
14 °C 10 km+ - 270° 270° 11 kt METAR LFBO 290030Z AUTO 27011KT CAVOK 14/12 Q1006 TEMPO 4000 SHRA SCT014TCU BKN020
02:00
V
14 °C 10 km+ 17.000 ft 270° 270° 14 kt METAR LFBO 290000Z AUTO 27014KT 9999 FEW049 SCT076 OVC170 14/13 Q1006 TEMPO 2000 RA BKN013TCU
01:30
V
14 °C 10 km+ 6.800 ft 260° 260° 13 kt METAR LFBO 282330Z AUTO 26013KT 9999 FEW010 SCT054 BKN068 14/13 Q1007 TEMPO 2000 RA BKN013TCU
01:00
V
14 °C 10 km+ 3.400 ft 250° 250° 15 kt METAR LFBO 282300Z AUTO 25015KT 9999 FEW015 BKN034 BKN082 14/13 Q1007 TEMPO 2000 RA BKN013TCU
00:30
V
14 °C 10 km+ 10.000 ft 250° 250° 15 kt METAR LFBO 282230Z AUTO 25015KT 9999 SCT015 SCT030 BKN100 14/13 Q1007 TEMPO 2000 RA BKN013TCU
00:00
V
15 °C 10 km+ 5.600 ft 250° 250° 14 kt METAR LFBO 282200Z AUTO 25014KT 9999 FEW015 SCT020 BKN056 15/13 Q1007 TEMPO 2000 RA BKN013TCU

28 september 2022

Tijd Code Weer Temp. Zicht Plafond Wind METAR/SPECI
23:30
V
15 °C 10 km+ 3.400 ft 260° 260° 14 kt METAR LFBO 282130Z AUTO 26014KT 9999 FEW018/// SCT024/// BKN034/// ///TCU 15/13 Q1008 TEMPO 2000 RA BKN013TCU
23:00
V
15 °C 10 km+ 4.700 ft 260° 260° 12 kt METAR LFBO 282100Z AUTO 26012KT 9999 SCT026/// BKN047/// BKN066/// //////TCU 15/13 Q1008 TEMPO 2000 RA BKN013TCU
22:30
V
15 °C 10 km+ 4.100 ft 260° 260° 11 kt METAR LFBO 282030Z AUTO 26011KT 9999 FEW018/// SCT026/// BKN041/// ///TCU 15/13 Q1008 TEMPO 2000 RA BKN013TCU
22:00
V
15 °C 10 km+ 3.000 ft 260° 260° 13 kt METAR LFBO 282000Z AUTO 26013KT 9999 FEW015/// SCT021/// BKN030/// //////TCU 15/13 Q1008 TEMPO 2000 RA BKN013TCU
21:30
M
15 °C 10 km+ 2.300 ft 260° 260° 9 kt METAR LFBO 281930Z AUTO 26009KT 9999 SCT017/// BKN023/// BKN032/// //////TCU 15/14 Q1008 TEMPO 2000 RA BKN013TCU
21:00
M
15 °C 10 km+ 2.900 ft 270° 270° 12 kt METAR LFBO 281900Z AUTO 27012KT 9999 FEW019/// BKN029/// BKN046/// ///TCU 15/14 Q1008 TEMPO 26015G25KT 2000 RA BKN013TCU
20:30
M
15 °C 7 km 2.300 ft 270° 270° 14 kt METAR LFBO 281830Z AUTO 27014KT 7000 SCT014/// BKN023/// BKN032/// //////TCU 15/14 Q1008 TEMPO 26015G25KT 2000 RA BKN013TCU
20:00
V
16 °C 10 km+ 3.700 ft 260° 260° 11 kt METAR LFBO 281800Z AUTO 26011KT 9999 SCT028 BKN037 BKN084 16/14 Q1007 TEMPO 26015G25KT 4000 -SHRA SCT014TCU BKN020
19:30
V
16 °C 10 km+ 7.800 ft 260° 260° 11 kt METAR LFBO 281730Z AUTO 26011KT 9999 FEW025 SCT036 BKN078 16/14 Q1007 TEMPO 26018G28KT 3000 SHRA BKN014TCU BKN020
19:00
V
16 °C 10 km+ 6.400 ft 270° 270° 10 kt METAR LFBO 281700Z AUTO 27010KT 9999 FEW025 SCT032 BKN064 16/14 Q1007 TEMPO 26018G28KT 3000 SHRA BKN014TCU BKN020
18:30
V
16 °C 10 km+ 3.700 ft 270° 270° 14 kt METAR LFBO 281630Z AUTO 27014KT 9999 FEW029 BKN037 BKN047 16/14 Q1007 TEMPO 26018G28KT 3000 SHRA BKN014TCU BKN020
18:00
V
16 °C 10 km+ 3.300 ft 260° 260° 14 kt METAR LFBO 281600Z AUTO 26014KT 9999 -RA SCT024/// BKN033/// BKN042/// //////TCU 16/14 Q1007 TEMPO 26018G28KT 3000 SHRA BKN014TCU BKN020
17:30
V
17 °C 10 km+ 4.600 ft 280° 280° 13 kt METAR LFBO 281530Z AUTO 28013KT 230V290 9999 FEW025/// SCT034/// BKN046/// //////TCU 17/15 Q1007 TEMPO 26018G28KT 3000 SHRA BKN014TCU BKN020
17:00
V
16 °C 10 km+ 3.300 ft 290° 290° 16 kt METAR LFBO 281500Z AUTO 29016KT 9999 FEW019/// SCT027/// BKN033/// //////CB 16/14 Q1007 TEMPO 26018G28KT 3000 SHRA BKN014TCU BKN020
Oudere gegevens

Met cookies volgen wij en derde partijen jouw internetgedrag binnen onze site. Als je verdergaat gaan we ervan uit dat je dit goedvindt. Meer info